Time;durP1;ratioP1;P1;durP2;ratioP2;P2;SDS_P1;SDS_P2;PMS_P1;PMS_P2;Temp;Humidity;BMP_temperature;BMP_pressure;BME280_temperature;BME280_humidity;BME280_pressure;Samples;Min_cycle;Max_cycle;Signal;HPM_P1;HPM_P2
2022/09/12 00:00:49;;;;;;;6.30;3.63;;;16.40;99.90;;;;;;5015090;28;20037;-78
2022/09/12 00:03:15;;;;;;;9.07;3.95;;;16.40;99.90;;;;;;5015089;28;20037;-79
2022/09/12 00:05:45;;;;;;;7.20;3.53;;;16.40;99.90;;;;;;5016222;28;20030;-78
2022/09/12 00:08:12;;;;;;;4.90;4.03;;;16.40;99.90;;;;;;5014619;28;20033;-79
2022/09/12 00:10:39;;;;;;;6.53;4.15;;;16.30;99.90;;;;;;5016208;28;20105;-78
2022/09/12 00:13:06;;;;;;;7.35;4.15;;;16.30;99.90;;;;;;5014663;28;20026;-78
2022/09/12 00:15:32;;;;;;;5.78;4.38;;;16.20;99.90;;;;;;5019653;28;20034;-77
2022/09/12 00:17:57;;;;;;;6.00;4.00;;;16.10;99.90;;;;;;5017633;28;20025;-78
2022/09/12 00:20:23;;;;;;;6.80;4.40;;;16.10;99.90;;;;;;5014545;28;20121;-78
2022/09/12 00:22:49;;;;;;;5.90;4.53;;;16.00;99.90;;;;;;5014876;28;20026;-78
2022/09/12 00:25:15;;;;;;;5.63;4.15;;;16.00;99.90;;;;;;5014033;28;20076;-78
2022/09/12 00:27:40;;;;;;;6.72;4.07;;;16.00;99.90;;;;;;5015269;28;20037;-78
2022/09/12 00:30:06;;;;;;;10.38;4.43;;;15.90;99.90;;;;;;5013952;28;20038;-80
2022/09/12 00:32:33;;;;;;;5.80;4.40;;;15.90;99.90;;;;;;5015330;28;20455;-79
2022/09/12 00:34:58;;;;;;;8.27;4.53;;;15.80;99.90;;;;;;5014444;28;20028;-79
2022/09/12 00:37:24;;;;;;;5.65;3.95;;;15.80;99.90;;;;;;5013781;28;20539;-79
2022/09/12 00:39:49;;;;;;;6.53;4.20;;;15.80;99.90;;;;;;5014578;28;20025;-79
2022/09/12 00:42:15;;;;;;;7.88;4.38;;;15.70;99.90;;;;;;5015025;28;20022;-79
2022/09/12 00:44:43;;;;;;;6.78;4.20;;;15.70;99.90;;;;;;5013889;28;20084;-77
2022/09/12 00:47:22;;;;;;;10.93;4.70;;;15.70;99.90;;;;;;5014063;28;20029;-78
2022/09/12 00:49:50;;;;;;;6.93;4.00;;;15.70;99.90;;;;;;5015152;28;20128;-78
2022/09/12 00:52:27;;;;;;;7.60;4.10;;;15.60;99.90;;;;;;5014919;28;20024;-78
2022/09/12 00:55:01;;;;;;;6.20;4.63;;;15.60;99.90;;;;;;5015183;28;20037;-78
2022/09/12 00:57:32;;;;;;;6.75;4.03;;;15.60;99.90;;;;;;5013564;28;20041;-77
2022/09/12 01:00:07;;;;;;;5.90;4.18;;;15.60;99.90;;;;;;5014374;28;20036;-77
2022/09/12 01:02:33;;;;;;;7.53;4.05;;;15.60;99.90;;;;;;5014168;28;20045;-77
2022/09/12 01:04:59;;;;;;;7.57;4.32;;;15.60;99.90;;;;;;5014979;28;20030;-77
2022/09/12 01:07:25;;;;;;;6.75;4.45;;;15.60;99.90;;;;;;5012760;28;20462;-77
2022/09/12 01:09:51;;;;;;;8.60;4.53;;;15.60;99.90;;;;;;5013062;28;20030;-77
2022/09/12 01:12:16;;;;;;;7.75;4.47;;;15.60;99.90;;;;;;5012739;28;20033;-77
2022/09/12 01:14:42;;;;;;;5.97;4.20;;;15.60;99.90;;;;;;5013233;28;20032;-76
2022/09/12 01:17:12;;;;;;;7.90;4.05;;;15.60;99.90;;;;;;5013740;28;20046;-77
2022/09/12 01:20:16;;;;;;;6.68;4.05;;;15.60;99.90;;;;;;5013543;28;20030;-77
2022/09/12 01:23:24;;;;;;;4.95;4.00;;;15.60;99.90;;;;;;5013648;28;20022;-77
2022/09/12 01:26:03;;;;;;;6.90;4.63;;;15.50;99.90;;;;;;5012360;28;20042;-79
2022/09/12 01:28:41;;;;;;;5.57;4.40;;;15.60;99.90;;;;;;5013730;28;20120;-77
2022/09/12 01:31:18;;;;;;;9.05;4.85;;;15.50;99.90;;;;;;5014098;28;20129;-83
2022/09/12 01:33:53;;;;;;;6.60;4.45;;;15.50;99.90;;;;;;5014680;28;20037;-78
2022/09/12 01:36:33;;;;;;;9.13;4.53;;;15.40;99.90;;;;;;5013250;28;20032;-78
2022/09/12 01:39:00;;;;;;;5.65;4.25;;;15.40;99.90;;;;;;5014681;28;20494;-77
2022/09/12 01:41:35;;;;;;;9.00;4.45;;;15.30;99.90;;;;;;5014541;28;20680;-78
2022/09/12 01:44:21;;;;;;;6.45;4.68;;;15.30;99.90;;;;;;5014517;28;20033;-77
2022/09/12 01:46:52;;;;;;;6.63;4.30;;;15.30;99.90;;;;;;5014000;28;20022;-77
2022/09/12 01:49:50;;;;;;;6.83;4.47;;;15.30;99.90;;;;;;5012984;28;20065;-79
2022/09/12 01:52:26;;;;;;;7.07;4.30;;;15.20;99.90;;;;;;5013043;28;20274;-78
2022/09/12 01:54:59;;;;;;;6.63;4.40;;;15.20;99.90;;;;;;5014186;28;20022;-78
2022/09/12 01:57:38;;;;;;;6.82;4.28;;;15.20;99.90;;;;;;5013283;28;20040;-78
2022/09/12 02:00:10;;;;;;;5.65;4.35;;;15.10;99.90;;;;;;5013449;28;20029;-78
2022/09/12 02:02:38;;;;;;;;;;;15.10;99.90;;;;;;5014192;28;20022;-78
2022/09/12 02:05:26;;;;;;;6.10;4.50;;;15.10;99.90;;;;;;5013234;28;19913;-77
2022/09/12 02:08:26;;;;;;;7.80;4.95;;;15.10;99.90;;;;;;5014645;28;20022;-77
2022/09/12 02:10:59;;;;;;;5.68;4.35;;;15.10;99.90;;;;;;4998932;28;20542;-78
2022/09/12 02:13:30;;;;;;;7.07;4.15;;;15.00;99.90;;;;;;5013643;28;20022;-79
2022/09/12 02:16:10;;;;;;;8.65;4.45;;;15.00;99.90;;;;;;5013694;28;20088;-77
2022/09/12 02:18:40;;;;;;;7.80;5.07;;;15.00;99.90;;;;;;5019180;28;20080;-77
2022/09/12 02:21:06;;;;;;;7.40;4.35;;;15.00;99.90;;;;;;5020407;28;20053;-77
2022/09/12 02:23:36;;;;;;;6.38;4.38;;;15.00;99.90;;;;;;5019048;28;20120;-77
2022/09/12 02:26:17;;;;;;;8.82;4.70;;;14.90;99.90;;;;;;5020314;28;20112;-77
2022/09/12 02:28:43;;;;;;;7.55;4.47;;;15.00;99.90;;;;;;5019661;28;20399;-79
2022/09/12 02:31:24;;;;;;;6.18;4.45;;;14.90;99.90;;;;;;5020235;28;20041;-83
2022/09/12 02:34:16;;;;;;;7.78;4.15;;;14.90;99.90;;;;;;5020414;28;20041;-78
2022/09/12 02:37:01;;;;;;;8.88;4.95;;;14.90;99.90;;;;;;5019328;28;20034;-78
2022/09/12 02:39:27;;;;;;;7.35;4.88;;;14.90;99.90;;;;;;5019180;28;20429;-78
2022/09/12 02:41:59;;;;;;;11.57;5.15;;;14.90;99.90;;;;;;5019381;28;20126;-78
2022/09/12 02:44:27;;;;;;;8.45;5.00;;;14.90;99.90;;;;;;5019531;28;20054;-78
2022/09/12 02:47:17;;;;;;;7.78;4.63;;;15.00;99.90;;;;;;5019329;28;20033;-77
2022/09/12 02:49:43;;;;;;;9.80;5.15;;;15.00;99.90;;;;;;5020538;28;20038;-78
2022/09/12 02:52:08;;;;;;;7.10;4.57;;;14.90;99.90;;;;;;5020486;28;20105;-78
2022/09/12 02:54:36;;;;;;;5.18;4.38;;;15.00;99.90;;;;;;5019162;28;20032;-79
2022/09/12 02:57:02;;;;;;;8.32;4.90;;;15.00;99.90;;;;;;5020586;28;20371;-77
2022/09/12 02:59:28;;;;;;;10.63;5.07;;;15.00;99.90;;;;;;5019127;28;20064;-78
2022/09/12 03:02:27;;;;;;;8.93;4.60;;;14.90;99.90;;;;;;5019155;28;20053;-77
2022/09/12 03:05:12;;;;;;;10.25;4.45;;;14.90;99.90;;;;;;5019322;28;20029;-77
2022/09/12 03:08:01;;;;;;;9.43;4.90;;;14.80;99.90;;;;;;5019534;28;20105;-77
2022/09/12 03:10:40;;;;;;;8.00;4.30;;;14.80;99.90;;;;;;5019353;28;20038;-77
2022/09/12 03:13:31;;;;;;;5.88;4.55;;;14.60;99.90;;;;;;5018320;28;20037;-77
2022/09/12 03:16:31;;;;;;;7.03;4.82;;;14.70;99.90;;;;;;5020163;28;20053;-77
2022/09/12 03:18:59;;;;;;;8.07;4.78;;;14.70;99.90;;;;;;5019398;28;20021;-79
2022/09/12 03:21:37;;;;;;;6.63;5.43;;;14.60;99.90;;;;;;5018620;28;20030;-79
2022/09/12 03:24:03;;;;;;;8.75;5.10;;;14.60;99.90;;;;;;5019187;28;20030;-79
2022/09/12 03:26:41;;;;;;;9.32;4.90;;;14.60;99.90;;;;;;5018856;28;20383;-80
2022/09/12 03:29:08;;;;;;;9.88;5.40;;;14.70;99.90;;;;;;5015553;28;20360;-79
2022/09/12 03:31:33;;;;;;;7.75;5.07;;;14.60;99.90;;;;;;5016448;28;20478;-77
2022/09/12 03:33:59;;;;;;;9.73;5.07;;;14.60;99.90;;;;;;5015034;28;20160;-77
2022/09/12 03:36:28;;;;;;;8.15;5.13;;;14.60;99.90;;;;;;5014694;28;20026;-77
2022/09/12 03:38:54;;;;;;;11.00;5.55;;;14.60;99.90;;;;;;5014866;28;20025;-76
2022/09/12 03:41:20;;;;;;;8.77;5.60;;;14.50;99.90;;;;;;5014295;28;20164;-77
2022/09/12 03:43:46;;;;;;;8.05;5.38;;;14.50;99.90;;;;;;5014698;28;20026;-77
2022/09/12 03:46:12;;;;;;;8.43;5.28;;;14.60;99.90;;;;;;5015830;28;20356;-77
2022/09/12 03:48:38;;;;;;;7.07;5.28;;;14.60;99.90;;;;;;5014415;28;20026;-77
2022/09/12 03:51:07;;;;;;;8.73;5.82;;;14.60;99.90;;;;;;5014573;28;20073;-77
2022/09/12 03:53:33;;;;;;;8.57;5.22;;;14.60;99.90;;;;;;5014516;28;20038;-76
2022/09/12 03:55:59;;;;;;;8.82;5.28;;;14.50;99.90;;;;;;5014559;28;20030;-77
2022/09/12 03:58:29;;;;;;;7.22;5.20;;;14.60;99.90;;;;;;5015170;28;20026;-77
2022/09/12 04:00:54;;;;;;;8.40;5.35;;;14.50;99.90;;;;;;5015961;28;20033;-78
2022/09/12 04:03:20;;;;;;;9.63;5.32;;;14.50;99.90;;;;;;5014453;28;20022;-79
2022/09/12 04:05:46;;;;;;;6.57;5.05;;;14.50;99.90;;;;;;5016471;28;20022;-78
2022/09/12 04:08:12;;;;;;;9.38;5.43;;;14.50;99.90;;;;;;5015463;28;20108;-78
2022/09/12 04:10:37;;;;;;;13.15;5.97;;;14.40;99.90;;;;;;5014973;28;20033;-79
2022/09/12 04:13:03;;;;;;;13.50;6.00;;;14.40;99.90;;;;;;5015221;28;20084;-79
2022/09/12 04:15:28;;;;;;;8.85;5.68;;;14.40;99.90;;;;;;5014782;28;20076;-80
2022/09/12 04:17:54;;;;;;;11.73;5.95;;;14.50;99.90;;;;;;5015570;28;20026;-79
2022/09/12 04:20:20;;;;;;;9.93;5.80;;;14.40;99.90;;;;;;5014839;28;20152;-80
2022/09/12 04:22:45;;;;;;;8.60;5.57;;;14.40;99.90;;;;;;5015400;28;20022;-79
2022/09/12 04:25:12;;;;;;;10.40;5.95;;;14.40;99.90;;;;;;5016260;28;20029;-79
2022/09/12 04:27:37;;;;;;;9.35;6.28;;;14.50;99.90;;;;;;5014882;28;20513;-79
2022/09/12 04:30:04;;;;;;;10.48;6.47;;;14.40;99.90;;;;;;5014858;28;20030;-79
2022/09/12 04:32:30;;;;;;;8.43;5.90;;;14.40;99.90;;;;;;5015310;28;20034;-79
2022/09/12 04:34:56;;;;;;;9.02;5.88;;;14.40;99.90;;;;;;5014810;28;20030;-79
2022/09/12 04:37:23;;;;;;;11.13;6.35;;;14.50;99.90;;;;;;5015674;28;20046;-80
2022/09/12 04:39:49;;;;;;;11.80;6.15;;;14.40;99.90;;;;;;5014074;28;20026;-79
2022/09/12 04:42:15;;;;;;;8.63;6.28;;;14.40;99.90;;;;;;5015953;28;20022;-79
2022/09/12 04:44:40;;;;;;;11.57;6.25;;;14.30;99.90;;;;;;5014260;28;20033;-79
2022/09/12 04:47:06;;;;;;;9.55;6.85;;;14.30;99.90;;;;;;5014990;28;20534;-79
2022/09/12 04:49:32;;;;;;;8.48;6.10;;;14.30;99.90;;;;;;5014495;28;20033;-77
2022/09/12 04:51:58;;;;;;;9.80;6.50;;;14.30;99.90;;;;;;5014095;28;20037;-77
2022/09/12 04:54:24;;;;;;;11.35;6.53;;;14.30;99.90;;;;;;5013564;28;20026;-82
2022/09/12 04:56:50;;;;;;;11.05;6.20;;;14.30;99.90;;;;;;5015394;28;20033;-80
2022/09/12 04:59:16;;;;;;;13.68;6.80;;;14.30;99.90;;;;;;5014377;28;20030;-77
2022/09/12 05:01:42;;;;;;;9.95;6.45;;;14.30;99.90;;;;;;5013933;28;20128;-78
2022/09/12 05:04:12;;;;;;;9.20;6.20;;;14.30;99.90;;;;;;5014006;28;20062;-78
2022/09/12 05:06:39;;;;;;;9.88;6.22;;;14.30;99.90;;;;;;5013484;28;20184;-78
2022/09/12 05:09:07;;;;;;;11.43;6.50;;;14.30;99.90;;;;;;5013976;28;20049;-78
2022/09/12 05:11:38;;;;;;;9.20;6.43;;;14.30;99.90;;;;;;5015052;28;20040;-79
2022/09/12 05:14:04;;;;;;;12.98;6.70;;;14.30;99.90;;;;;;5014376;28;20026;-77
2022/09/12 05:16:31;;;;;;;9.07;6.07;;;14.30;99.90;;;;;;5014009;28;20129;-79
2022/09/12 05:18:58;;;;;;;10.85;6.22;;;14.40;99.90;;;;;;5013659;28;20033;-77
2022/09/12 05:21:24;;;;;;;11.85;6.55;;;14.30;99.90;;;;;;5013171;28;20399;-78
2022/09/12 05:23:55;;;;;;;11.65;7.03;;;14.30;99.90;;;;;;5014638;28;20026;-77
2022/09/12 05:26:22;;;;;;;13.40;7.35;;;14.20;99.90;;;;;;5013197;28;20026;-82
2022/09/12 05:28:49;;;;;;;11.25;6.88;;;14.20;99.90;;;;;;5013542;28;20053;-77
2022/09/12 05:31:18;;;;;;;14.57;7.25;;;14.30;99.90;;;;;;5014350;28;20034;-77
2022/09/12 05:33:46;;;;;;;14.60;8.18;;;14.30;99.90;;;;;;5012451;28;20029;-77
2022/09/12 05:36:31;;;;;;;14.48;8.23;;;14.20;99.90;;;;;;5014296;28;20029;-77
2022/09/12 05:38:58;;;;;;;14.90;8.35;;;14.30;99.90;;;;;;5013680;28;20025;-77
2022/09/12 05:41:28;;;;;;;17.70;8.77;;;14.30;99.90;;;;;;5013355;28;20466;-78
2022/09/12 05:43:56;;;;;;;15.88;8.63;;;14.30;99.90;;;;;;5012921;28;20103;-76
2022/09/12 05:46:27;;;;;;;18.33;8.10;;;14.30;99.90;;;;;;5013663;28;20045;-80
2022/09/12 05:48:53;;;;;;;16.60;9.40;;;14.30;99.90;;;;;;5013622;28;20029;-77
2022/09/12 05:51:22;;;;;;;15.02;8.00;;;14.30;99.90;;;;;;5011941;28;20037;-81
2022/09/12 05:53:58;;;;;;;11.27;7.20;;;14.40;99.90;;;;;;5012494;28;20494;-77
2022/09/12 05:56:27;;;;;;;14.38;7.93;;;14.30;99.90;;;;;;5012513;28;20117;-79
2022/09/12 05:58:55;;;;;;;14.30;8.02;;;14.30;99.90;;;;;;5013600;28;20021;-77
2022/09/12 06:01:21;;;;;;;13.30;7.88;;;14.30;99.90;;;;;;5011909;28;20467;-80
2022/09/12 06:03:50;;;;;;;12.85;7.53;;;14.40;99.90;;;;;;5013156;28;20093;-76
2022/09/12 06:06:17;;;;;;;9.52;6.85;;;14.40;99.90;;;;;;5013187;28;20519;-76
2022/09/12 06:08:48;;;;;;;13.18;7.47;;;14.40;99.90;;;;;;5012694;28;20116;-76
2022/09/12 06:11:19;;;;;;;12.95;7.25;;;14.50;99.90;;;;;;5013065;28;20424;-76
2022/09/12 06:13:45;;;;;;;14.45;7.28;;;14.50;99.90;;;;;;5013164;28;20035;-76
2022/09/12 06:16:14;;;;;;;11.40;7.65;;;14.50;99.90;;;;;;5011595;28;20041;-77
2022/09/12 06:18:41;;;;;;;12.65;7.30;;;14.50;99.90;;;;;;5011700;28;20081;-77
2022/09/12 06:21:09;;;;;;;13.52;7.97;;;14.50;99.90;;;;;;5013391;28;20491;-76
2022/09/12 06:23:35;;;;;;;11.77;7.38;;;14.50;99.90;;;;;;5012766;28;20022;-77
2022/09/12 06:26:03;;;;;;;12.00;7.47;;;14.60;99.90;;;;;;5013527;28;20053;-76
2022/09/12 06:28:29;;;;;;;13.73;7.32;;;14.60;99.90;;;;;;5011373;28;20125;-77
2022/09/12 06:31:09;;;;;;;15.40;7.22;;;14.70;99.90;;;;;;5013166;28;20525;-77
2022/09/12 06:33:36;;;;;;;21.70;11.63;;;14.70;99.90;;;;;;5011555;28;20053;-77
2022/09/12 06:36:08;;;;;;;28.27;15.02;;;14.70;99.90;;;;;;5011942;28;20030;-77
2022/09/12 06:38:34;;;;;;;19.67;9.65;;;14.70;99.90;;;;;;5012745;28;20105;-77
2022/09/12 06:41:02;;;;;;;26.48;11.32;;;14.70;99.90;;;;;;5011417;28;20129;-77
2022/09/12 06:43:28;;;;;;;14.70;7.60;;;14.80;99.90;;;;;;5010610;28;20476;-77
2022/09/12 06:45:54;;;;;;;56.13;27.65;;;14.80;99.90;;;;;;5011940;28;20021;-77
2022/09/12 06:48:20;;;;;;;31.67;16.45;;;14.80;99.90;;;;;;5011696;28;20029;-78
2022/09/12 06:51:16;;;;;;;19.17;10.90;;;14.90;99.90;;;;;;5013221;28;20026;-79
2022/09/12 06:53:43;;;;;;;14.20;9.13;;;15.00;99.90;;;;;;4999681;28;20124;-79
2022/09/12 06:56:15;;;;;;;14.55;8.07;;;15.00;99.90;;;;;;5012808;28;20026;-79
2022/09/12 06:58:42;;;;;;;11.40;7.65;;;15.10;99.90;;;;;;5013347;28;20055;-79
2022/09/12 07:01:16;;;;;;;14.85;8.10;;;15.10;99.90;;;;;;5013773;28;20040;-79
2022/09/12 07:03:47;;;;;;;12.43;6.85;;;15.10;99.90;;;;;;5015029;28;20029;-79
2022/09/12 07:06:14;;;;;;;9.77;6.22;;;15.20;99.90;;;;;;5016928;28;20084;-78
2022/09/12 07:08:40;;;;;;;10.00;6.07;;;15.30;99.90;;;;;;5015123;28;20026;-77
2022/09/12 07:11:19;;;;;;;8.68;5.88;;;15.30;99.90;;;;;;5016543;28;20037;-77
2022/09/12 07:13:50;;;;;;;10.07;5.55;;;15.40;99.90;;;;;;5014981;28;20025;-78
2022/09/12 07:16:17;;;;;;;7.40;5.28;;;15.40;99.90;;;;;;5015656;28;20056;-78
2022/09/12 07:18:42;;;;;;;9.00;6.22;;;15.50;99.90;;;;;;5015129;28;20030;-77
2022/09/12 07:21:13;;;;;;;9.40;6.22;;;15.50;99.90;;;;;;5016727;28;20048;-78
2022/09/12 07:23:40;;;;;;;8.48;5.68;;;15.50;99.90;;;;;;5014712;28;20045;-78
2022/09/12 07:26:08;;;;;;;9.95;6.15;;;15.50;99.90;;;;;;5015424;28;20034;-77
2022/09/12 07:28:34;;;;;;;8.43;5.70;;;15.50;99.90;;;;;;5014579;28;20116;-76
2022/09/12 07:31:09;;;;;;;12.63;5.65;;;15.60;99.90;;;;;;5016208;28;20160;-76
2022/09/12 07:33:36;;;;;;;11.15;6.55;;;15.70;99.90;;;;;;5015705;28;20026;-77
2022/09/12 07:36:03;;;;;;;9.25;5.72;;;15.70;99.90;;;;;;5015158;28;20033;-76
2022/09/12 07:38:29;;;;;;;7.28;5.18;;;15.70;99.90;;;;;;5015811;28;20033;-81
2022/09/12 07:40:55;;;;;;;9.25;6.05;;;15.80;99.90;;;;;;5015556;28;20368;-77
2022/09/12 07:43:21;;;;;;;7.95;5.40;;;15.80;99.90;;;;;;5014504;28;20099;-77
2022/09/12 07:45:47;;;;;;;9.57;5.60;;;15.90;99.90;;;;;;5014641;28;20597;-79
2022/09/12 07:48:12;;;;;;;8.63;5.45;;;15.90;99.90;;;;;;5016238;28;20053;-78
2022/09/12 07:50:38;;;;;;;9.20;6.07;;;15.90;99.90;;;;;;5014570;28;20036;-77
2022/09/12 07:53:05;;;;;;;9.13;6.00;;;16.00;99.90;;;;;;5015851;28;20026;-77
2022/09/12 07:55:31;;;;;;;9.20;5.88;;;16.00;99.90;;;;;;5014371;28;20378;-83
2022/09/12 07:57:57;;;;;;;10.23;5.25;;;16.00;99.90;;;;;;5015703;28;20025;-77
2022/09/12 08:00:22;;;;;;;10.05;5.40;;;16.10;99.90;;;;;;5015896;28;20100;-79
2022/09/12 08:02:52;;;;;;;9.90;6.13;;;16.10;99.90;;;;;;5014989;28;20080;-79
2022/09/12 08:05:19;;;;;;;11.52;5.53;;;16.20;99.90;;;;;;5015114;28;20056;-79
2022/09/12 08:07:45;;;;;;;8.38;5.35;;;16.20;99.90;;;;;;5015565;28;20026;-78
2022/09/12 08:10:11;;;;;;;9.05;5.55;;;16.20;99.90;;;;;;5013961;28;20133;-78
2022/09/12 08:12:37;;;;;;;8.18;5.40;;;16.30;99.90;;;;;;4998015;28;20027;-78
2022/09/12 08:15:03;;;;;;;8.50;5.03;;;16.30;99.90;;;;;;5004597;28;20406;-77
2022/09/12 08:17:28;;;;;;;7.40;5.43;;;16.40;99.90;;;;;;5005105;28;20046;-77
2022/09/12 08:19:55;;;;;;;7.70;5.18;;;16.40;99.90;;;;;;5012980;28;20088;-78
2022/09/12 08:22:21;;;;;;;7.82;5.43;;;16.40;99.90;;;;;;5013578;28;20099;-78
2022/09/12 08:24:47;;;;;;;7.80;5.68;;;16.50;99.90;;;;;;5010905;28;20530;-83
2022/09/12 08:27:13;;;;;;;10.20;6.50;;;16.50;99.90;;;;;;5013780;28;20175;-79
2022/09/12 08:29:39;;;;;;;10.10;5.90;;;16.60;99.90;;;;;;5012134;28;20026;-78
2022/09/12 08:32:05;;;;;;;7.75;5.47;;;16.60;99.90;;;;;;5012730;28;20778;-77
2022/09/12 08:34:30;;;;;;;8.43;5.85;;;16.60;99.90;;;;;;5013432;28;20032;-77
2022/09/12 08:36:56;;;;;;;8.45;5.68;;;16.70;99.90;;;;;;5013308;28;20123;-81
2022/09/12 08:39:23;;;;;;;9.98;5.47;;;16.70;99.90;;;;;;5009819;28;20025;-77
2022/09/12 08:42:00;;;;;;;7.53;5.07;;;16.70;99.90;;;;;;5006524;28;20401;-76
2022/09/12 08:44:47;;;;;;;8.10;5.38;;;16.80;99.90;;;;;;4996783;28;20030;-78
2022/09/12 08:47:34;;;;;;;8.60;5.97;;;16.80;99.90;;;;;;5005605;28;20053;-78
2022/09/12 08:50:10;;;;;;;9.02;5.20;;;16.90;99.90;;;;;;4997980;28;20038;-77
2022/09/12 08:52:54;;;;;;;9.40;6.35;;;16.90;99.90;;;;;;5006984;28;20105;-81
2022/09/12 08:55:54;;;;;;;10.50;5.43;;;17.00;99.90;;;;;;5002989;28;20379;-80
2022/09/12 08:58:22;;;;;;;9.73;5.78;;;17.10;99.90;;;;;;4994730;28;20038;-78
2022/09/12 09:01:06;;;;;;;8.02;5.18;;;17.10;99.90;;;;;;5006282;28;20052;-77
2022/09/12 09:04:09;;;;;;;9.32;5.45;;;17.10;99.90;;;;;;5013793;28;20026;-78
2022/09/12 09:06:49;;;;;;;9.20;5.75;;;17.20;99.90;;;;;;5007824;28;20026;-76
2022/09/12 09:09:39;;;;;;;9.43;5.03;;;17.30;99.90;;;;;;5005424;28;20052;-76
2022/09/12 09:12:22;;;;;;;8.43;5.07;;;17.40;99.90;;;;;;5010197;28;20144;-76
2022/09/12 09:15:11;;;;;;;8.23;4.75;;;17.40;99.90;;;;;;5013757;28;20034;-78
2022/09/12 09:17:44;;;;;;;7.50;4.55;;;17.50;99.90;;;;;;5012225;28;20042;-78
2022/09/12 09:20:15;;;;;;;9.23;4.60;;;17.50;99.90;;;;;;5014681;28;20038;-79
2022/09/12 09:22:49;;;;;;;7.22;4.82;;;17.60;99.90;;;;;;5013835;28;20024;-78
2022/09/12 09:25:24;;;;;;;8.25;4.50;;;17.70;99.90;;;;;;5012736;28;20065;-82
2022/09/12 09:28:11;;;;;;;7.20;4.40;;;17.70;99.90;;;;;;5012300;28;20104;-79
2022/09/12 09:30:37;;;;;;;6.85;4.47;;;17.70;99.90;;;;;;5013435;28;20041;-78
2022/09/12 09:33:08;;;;;;;6.65;4.25;;;17.80;99.90;;;;;;5012792;28;20026;-78
2022/09/12 09:35:47;;;;;;;5.95;4.22;;;17.90;99.90;;;;;;5012284;28;20029;-84
2022/09/12 09:38:31;;;;;;;5.68;4.07;;;17.90;99.90;;;;;;5012539;28;20053;-81
2022/09/12 09:41:23;;;;;;;7.65;4.47;;;18.00;99.90;;;;;;5013198;28;20033;-81
2022/09/12 09:43:49;;;;;;;6.38;4.13;;;18.00;99.90;;;;;;5004481;28;20036;-79
2022/09/12 09:46:15;;;;;;;6.35;4.50;;;18.00;99.90;;;;;;5012844;28;20034;-77
2022/09/12 09:48:45;;;;;;;5.72;4.25;;;18.00;99.90;;;;;;5011274;28;20037;-78
2022/09/12 09:51:14;;;;;;;5.07;3.90;;;18.10;99.90;;;;;;5014859;28;20026;-78
2022/09/12 09:53:54;;;;;;;7.93;4.60;;;18.10;99.90;;;;;;5012942;28;20118;-79
2022/09/12 09:56:33;;;;;;;6.90;4.07;;;18.20;99.90;;;;;;5014313;28;20456;-78
2022/09/12 09:59:29;;;;;;;5.55;4.25;;;18.30;99.90;;;;;;5012987;28;20038;-79
2022/09/12 10:02:03;;;;;;;5.97;3.95;;;18.40;99.90;;;;;;5013979;28;20376;-79
2022/09/12 10:04:32;;;;;;;7.35;3.92;;;18.40;99.90;;;;;;5014460;28;20080;-79
2022/09/12 10:07:00;;;;;;;7.15;4.22;;;18.40;99.90;;;;;;5013239;28;20030;-78
2022/09/12 10:09:35;;;;;;;5.85;4.10;;;18.50;99.90;;;;;;5013994;28;20054;-79
2022/09/12 10:12:20;;;;;;;5.07;3.65;;;18.50;99.90;;;;;;5012725;28;20040;-79
2022/09/12 10:14:59;;;;;;;6.07;3.47;;;18.60;99.90;;;;;;5013482;28;20080;-79
2022/09/12 10:17:31;;;;;;;6.82;4.25;;;18.70;99.90;;;;;;5012749;28;20095;-79
2022/09/12 10:19:57;;;;;;;6.28;3.83;;;18.70;99.90;;;;;;5013236;28;20026;-79
2022/09/12 10:22:26;;;;;;;6.68;3.72;;;18.80;99.90;;;;;;5012846;28;20034;-79
2022/09/12 10:24:57;;;;;;;5.22;3.70;;;18.90;99.90;;;;;;5013179;28;20037;-79
2022/09/12 10:27:34;;;;;;;5.68;3.30;;;18.90;99.90;;;;;;5013297;28;20040;-79
2022/09/12 10:30:16;;;;;;;6.70;3.47;;;18.90;99.90;;;;;;5013124;28;20459;-79
2022/09/12 10:32:52;;;;;;;8.82;3.88;;;19.00;99.90;;;;;;5014232;28;20530;-79
2022/09/12 10:35:19;;;;;;;6.88;3.50;;;19.10;99.90;;;;;;5013047;28;20026;-78
2022/09/12 10:38:01;;;;;;;4.25;3.70;;;19.20;99.90;;;;;;5014262;28;20018;-79
2022/09/12 10:40:36;;;;;;;6.00;3.60;;;19.30;99.90;;;;;;5017697;28;20031;-79
2022/09/12 10:43:25;;;;;;;8.10;3.53;;;19.30;99.90;;;;;;5017808;28;20030;-79
2022/09/12 10:45:50;;;;;;;4.15;3.28;;;19.40;99.90;;;;;;5017233;28;20026;-79
2022/09/12 10:48:34;;;;;;;7.40;3.92;;;19.50;99.90;;;;;;5016741;28;20080;-78
2022/09/12 10:51:00;;;;;;;4.03;3.17;;;19.40;99.90;;;;;;5015970;28;20061;-77
2022/09/12 10:53:41;;;;;;;5.68;3.20;;;19.40;99.90;;;;;;5016470;28;20030;-78
2022/09/12 10:56:13;;;;;;;7.90;3.40;;;19.50;99.90;;;;;;5016467;28;20026;-78
2022/09/12 10:59:02;;;;;;;4.03;3.10;;;19.60;99.90;;;;;;5016013;28;20568;-79
2022/09/12 11:01:49;;;;;;;5.10;3.45;;;19.70;99.90;;;;;;5017467;28;20502;-78
2022/09/12 11:04:29;;;;;;;4.50;3.45;;;19.70;99.90;;;;;;5015978;28;20092;-79
2022/09/12 11:07:23;;;;;;;5.25;3.13;;;19.80;99.90;;;;;;5015599;28;20026;-78
2022/09/12 11:10:16;;;;;;;3.33;3.03;;;19.80;99.90;;;;;;5016860;28;20021;-78
2022/09/12 11:13:20;;;;;;;4.75;2.80;;;19.90;99.90;;;;;;5015552;28;20022;-78
2022/09/12 11:15:54;;;;;;;2.97;2.50;;;19.90;99.90;;;;;;5015057;28;20056;-78
2022/09/12 11:18:52;;;;;;;3.92;2.90;;;19.90;99.90;;;;;;5015946;28;20034;-78
2022/09/12 11:21:55;;;;;;;4.72;2.80;;;19.90;99.90;;;;;;5016798;28;20031;-78
2022/09/12 11:24:50;;;;;;;3.83;2.65;;;20.10;99.90;;;;;;5015911;28;20025;-78
2022/09/12 11:27:46;;;;;;;3.28;2.67;;;20.30;99.90;;;;;;5016784;28;20084;-78
2022/09/12 11:30:15;;;;;;;2.80;2.42;;;20.30;99.90;;;;;;5016909;28;20037;-78
2022/09/12 11:32:55;;;;;;;6.97;2.70;;;20.40;99.90;;;;;;5014834;28;20463;-79
2022/09/12 11:35:26;;;;;;;4.95;3.08;;;20.60;99.90;;;;;;5016596;28;20537;-79
2022/09/12 11:38:12;;;;;;;3.42;3.00;;;20.70;99.90;;;;;;5015375;28;20037;-78
2022/09/12 11:41:06;;;;;;;3.78;2.95;;;20.80;99.90;;;;;;5016131;28;20022;-82
2022/09/12 11:43:44;;;;;;;3.15;2.28;;;20.80;99.90;;;;;;5011136;28;20038;-78
2022/09/12 11:46:35;;;;;;;3.20;2.20;;;20.90;99.90;;;;;;5015417;28;20034;-79
2022/09/12 11:49:12;;;;;;;2.78;2.38;;;21.00;99.90;;;;;;5014012;28;20527;-78
2022/09/12 11:51:49;;;;;;;2.78;2.33;;;21.10;99.90;;;;;;5015501;28;20030;-78
2022/09/12 11:54:43;;;;;;;4.35;2.20;;;21.10;99.90;;;;;;5015124;28;20091;-79
2022/09/12 11:57:24;;;;;;;2.60;2.28;;;21.20;99.90;;;;;;5016839;28;20079;-79
2022/09/12 11:59:58;;;;;;;3.00;2.15;;;21.20;99.90;;;;;;5015922;28;20037;-79
2022/09/12 12:02:35;;;;;;;2.30;1.92;;;21.30;99.90;;;;;;5016437;28;20030;-78
2022/09/12 12:05:25;;;;;;;2.50;2.30;;;21.40;99.90;;;;;;5014574;28;20053;-79
2022/09/12 12:07:54;;;;;;;4.03;2.20;;;21.60;99.90;;;;;;5007987;28;20117;-79
2022/09/12 12:10:32;;;;;;;3.38;2.15;;;21.70;99.90;;;;;;5014982;28;20494;-84
2022/09/12 12:13:01;;;;;;;2.83;2.53;;;21.90;99.90;;;;;;5008017;28;20026;-81
2022/09/12 12:15:28;;;;;;;3.45;2.00;;;22.10;99.90;;;;;;5012628;28;20030;-80
2022/09/12 12:18:06;;;;;;;2.92;1.90;;;22.20;99.90;;;;;;5015496;28;20468;-81
2022/09/12 12:20:32;;;;;;;2.90;1.92;;;22.40;99.90;;;;;;5014646;28;20195;-81
2022/09/12 12:22:58;;;;;;;2.67;1.70;;;22.60;99.10;;;;;;5013527;28;20041;-81
2022/09/12 12:25:50;;;;;;;3.05;1.90;;;22.70;98.80;;;;;;5014439;28;20037;-80
2022/09/12 12:28:43;;;;;;;2.78;1.80;;;22.90;98.10;;;;;;5011299;28;20103;-79
2022/09/12 12:31:09;;;;;;;5.78;2.17;;;23.10;97.90;;;;;;5014134;28;20037;-85
2022/09/12 12:33:38;;;;;;;2.75;1.95;;;23.30;97.70;;;;;;5014747;28;20084;-85
2022/09/12 12:36:07;;;;;;;2.88;1.95;;;23.50;97.70;;;;;;5014123;28;20121;-85
2022/09/12 12:38:35;;;;;;;2.15;1.60;;;23.80;97.60;;;;;;5010281;28;20022;-90
2022/09/12 12:41:16;;;;;;;2.95;2.00;;;23.90;96.70;;;;;;4995652;28;20030;-86
2022/09/12 12:43:55;;;;;;;2.85;1.30;;;24.20;95.10;;;;;;4994666;28;20494;-79
2022/09/12 12:46:25;;;;;;;1.92;1.70;;;24.40;94.40;;;;;;4995649;28;20041;-80
2022/09/12 12:49:17;;;;;;;1.40;1.20;;;24.60;94.20;;;;;;4995579;28;20018;-84
2022/09/12 12:51:54;;;;;;;;;;;24.90;91.20;;;;;;4995544;28;20472;-82
2022/09/12 12:54:30;;;;;;;1.63;1.50;;;25.10;91.20;;;;;;4995858;28;19913;-79
2022/09/12 12:57:30;;;;;;;3.03;1.50;;;25.30;91.40;;;;;;4993250;28;20031;-79
2022/09/12 13:00:05;;;;;;;2.10;1.30;;;25.50;91.60;;;;;;4992970;28;20428;-84
2022/09/12 13:02:33;;;;;;;2.13;1.60;;;25.90;90.80;;;;;;4994409;28;20458;-83
2022/09/12 13:05:04;;;;;;;2.83;1.60;;;26.30;89.80;;;;;;4994847;28;20186;-78
2022/09/12 13:07:35;;;;;;;3.50;1.83;;;26.90;87.00;;;;;;4993805;28;20523;-80
2022/09/12 13:10:01;;;;;;;2.92;1.88;;;27.50;84.80;;;;;;4993766;28;20122;-81
2022/09/12 13:12:36;;;;;;;1.80;1.70;;;28.00;81.10;;;;;;5003638;28;20124;-83
2022/09/12 13:15:23;;;;;;;2.38;1.42;;;28.50;79.50;;;;;;5013559;28;20435;-89